Time;durP1;ratioP1;P1;durP2;ratioP2;P2;SDS_P1;SDS_P2;PMS_P1;PMS_P2;Temp;Humidity;BMP_temperature;BMP_pressure;BME280_temperature;BME280_humidity;BME280_pressure;Samples;Min_cycle;Max_cycle;Signal;HPM_P1;HPM_P2
2021/06/01 00:00:10;;;;;;;8.50;5.45;;;13.80;99.90;;;;;;5123497;27;20118;-75
2021/06/01 00:02:36;;;;;;;;;;;13.80;99.90;;;;;;5132125;27;20072;-82
2021/06/01 00:05:04;;;;;;;7.45;5.45;;;13.70;99.90;;;;;;5124067;28;19904;-79
2021/06/01 00:07:30;;;;;;;7.63;5.03;;;13.60;99.90;;;;;;5111188;28;20040;-76
2021/06/01 00:09:55;;;;;;;163.23;88.50;;;13.70;99.90;;;;;;5093393;28;20428;-80
2021/06/01 00:12:21;;;;;;;19.15;12.90;;;13.80;99.90;;;;;;5111514;28;20088;-77
2021/06/01 00:14:47;;;;;;;9.98;6.50;;;13.50;99.90;;;;;;5078598;28;20136;-80
2021/06/01 00:17:13;;;;;;;9.30;6.05;;;13.30;99.90;;;;;;5097819;28;20098;-76
2021/06/01 00:19:38;;;;;;;7.97;5.32;;;13.40;99.90;;;;;;5115874;28;20022;-80
2021/06/01 00:22:04;;;;;;;10.13;6.30;;;13.40;99.90;;;;;;5098116;28;20028;-77
2021/06/01 00:24:30;;;;;;;9.25;6.70;;;13.20;99.90;;;;;;5116281;28;20028;-83
2021/06/01 00:26:56;;;;;;;8.60;5.90;;;13.40;99.90;;;;;;5115557;28;20044;-75
2021/06/01 00:29:24;;;;;;;11.00;6.40;;;13.20;99.90;;;;;;5115222;28;20027;-73
2021/06/01 00:31:50;;;;;;;8.15;6.20;;;13.40;99.90;;;;;;5115975;28;20020;-88
2021/06/01 00:34:16;;;;;;;7.55;5.93;;;13.30;99.90;;;;;;5097968;28;20111;-75
2021/06/01 00:36:42;;;;;;;8.25;6.20;;;13.40;99.90;;;;;;5115859;28;20042;-77
2021/06/01 00:39:08;;;;;;;8.07;5.68;;;13.40;99.90;;;;;;5115532;28;20481;-80
2021/06/01 00:41:34;;;;;;;8.98;6.15;;;13.30;99.90;;;;;;5116124;28;20019;-74
2021/06/01 00:44:00;;;;;;;9.13;6.18;;;13.30;99.90;;;;;;5115237;28;20031;-74
2021/06/01 00:46:26;;;;;;;8.77;6.20;;;13.30;99.90;;;;;;5097520;28;20134;-74
2021/06/01 00:48:52;;;;;;;10.85;6.90;;;13.20;99.90;;;;;;5097157;28;20114;-74
2021/06/01 00:51:18;;;;;;;10.80;6.80;;;13.10;99.90;;;;;;5115522;28;20024;-74
2021/06/01 00:53:44;;;;;;;9.68;6.90;;;13.30;99.90;;;;;;5115698;28;20028;-74
2021/06/01 00:56:10;;;;;;;10.50;6.53;;;13.30;99.90;;;;;;5115507;28;20031;-74
2021/06/01 00:58:36;;;;;;;10.68;6.82;;;13.30;99.90;;;;;;5114820;28;20535;-86
2021/06/01 01:03:33;;;;;;;9.98;6.57;;;13.30;99.90;;;;;;5115810;28;20080;-83
2021/06/01 01:06:05;;;;;;;8.63;6.03;;;13.30;99.90;;;;;;5115752;28;20356;-81
2021/06/01 01:11:24;;;;;;;9.50;6.80;;;13.20;99.90;;;;;;5110160;28;20027;-74
2021/06/01 01:14:06;;;;;;;8.20;5.93;;;13.10;99.90;;;;;;5096630;28;20493;-81
2021/06/01 01:16:33;;;;;;;9.60;6.20;;;13.20;99.90;;;;;;5096500;28;20019;-76
2021/06/01 01:19:06;;;;;;;8.85;6.30;;;12.70;99.90;;;;;;5114445;28;20023;-77
2021/06/01 01:21:38;;;;;;;8.65;5.85;;;12.50;99.90;;;;;;5114779;28;20016;-74
2021/06/01 01:24:31;;;;;;;10.48;6.40;;;12.70;99.90;;;;;;5114822;28;20023;-83
2021/06/01 01:27:13;;;;;;;8.93;6.20;;;12.60;99.90;;;;;;5113480;28;20092;-77
2021/06/01 01:29:44;;;;;;;9.60;6.55;;;12.80;99.90;;;;;;5096058;28;20020;-75
2021/06/01 01:32:25;;;;;;;9.38;6.35;;;13.10;99.90;;;;;;5114403;28;20438;-80
2021/06/01 01:34:53;;;;;;;9.43;5.90;;;13.10;99.90;;;;;;5114905;28;20023;-87
2021/06/01 01:37:21;;;;;;;8.55;6.20;;;13.20;99.90;;;;;;5114786;28;20024;-74
2021/06/01 01:39:50;;;;;;;10.32;6.38;;;12.90;99.90;;;;;;5114484;28;20034;-72
2021/06/01 01:42:18;;;;;;;8.00;6.03;;;12.90;99.90;;;;;;5114362;28;20117;-81
2021/06/01 01:44:51;;;;;;;8.45;6.35;;;13.00;99.90;;;;;;5114176;28;20111;-80
2021/06/01 01:50:18;;;;;;;7.22;5.60;;;12.90;99.90;;;;;;5080015;28;20046;-75
2021/06/01 01:52:45;;;;;;;7.47;5.32;;;13.10;99.90;;;;;;5114604;28;20136;-74
2021/06/01 01:55:11;;;;;;;6.55;4.85;;;13.10;99.90;;;;;;5114780;28;20374;-74
2021/06/01 01:57:41;;;;;;;8.98;5.95;;;12.90;99.90;;;;;;5114018;28;20070;-78
2021/06/01 02:00:13;;;;;;;6.88;5.20;;;12.60;99.90;;;;;;5095690;28;20028;-75
2021/06/01 02:02:39;;;;;;;7.85;5.03;;;12.70;99.90;;;;;;5114140;28;20382;-83
2021/06/01 02:05:08;;;;;;;6.97;5.30;;;12.80;99.90;;;;;;5114050;28;20498;-77
2021/06/01 02:07:34;;;;;;;6.95;4.88;;;12.80;99.90;;;;;;5114045;28;20291;-90
2021/06/01 02:10:03;;;;;;;7.75;5.35;;;12.90;99.90;;;;;;5114434;28;20031;-74
2021/06/01 02:12:29;;;;;;;8.05;5.57;;;13.00;99.90;;;;;;5113928;28;20054;-73
2021/06/01 02:14:58;;;;;;;7.25;5.00;;;13.00;99.90;;;;;;5114134;28;20073;-85
2021/06/01 02:17:23;;;;;;;6.20;4.57;;;13.00;99.90;;;;;;5095778;28;20024;-77
2021/06/01 02:19:49;;;;;;;8.40;5.05;;;12.90;99.90;;;;;;5113873;28;20364;-90
2021/06/01 02:25:14;;;;;;;7.65;5.05;;;12.50;99.90;;;;;;5075486;28;20036;-86
2021/06/01 02:27:42;;;;;;;7.53;5.53;;;12.60;99.90;;;;;;5095790;28;20043;-84
2021/06/01 02:30:12;;;;;;;6.70;4.85;;;12.80;99.90;;;;;;5114867;28;20566;-89
2021/06/01 02:32:44;;;;;;;6.90;5.30;;;12.80;99.90;;;;;;5097602;28;20031;-92
2021/06/01 02:35:13;;;;;;;6.93;5.18;;;12.70;99.90;;;;;;5115259;28;20027;-92
2021/06/01 02:37:43;;;;;;;10.50;4.78;;;12.90;99.90;;;;;;5096511;28;20077;-92
2021/06/01 02:40:11;;;;;;;6.85;4.88;;;13.10;99.90;;;;;;5115960;28;20027;-93
2021/06/01 02:42:41;;;;;;;7.10;4.85;;;13.20;99.90;;;;;;5114828;28;20042;-84
2021/06/01 02:45:09;;;;;;;7.05;4.55;;;13.30;99.90;;;;;;5114580;28;20104;-90
2021/06/01 02:47:35;;;;;;;6.80;5.03;;;13.10;99.90;;;;;;5114455;28;20453;-87
2021/06/01 02:50:05;;;;;;;8.27;4.88;;;12.90;99.90;;;;;;5095166;28;20019;-82
2021/06/01 02:52:32;;;;;;;9.37;5.13;;;12.80;99.90;;;;;;5113031;28;20028;-80
2021/06/01 02:55:06;;;;;;;9.60;5.82;;;12.70;99.90;;;;;;5113995;28;20635;-83
2021/06/01 02:57:32;;;;;;;7.10;5.45;;;12.70;99.90;;;;;;5112974;28;20023;-78
2021/06/01 02:59:58;;;;;;;7.25;4.90;;;12.80;99.90;;;;;;5113218;28;20024;-83
2021/06/01 03:02:29;;;;;;;8.48;5.10;;;13.00;99.90;;;;;;5112933;28;20375;-82
2021/06/01 03:04:55;;;;;;;9.02;4.95;;;13.10;99.90;;;;;;5113364;28;20050;-81
2021/06/01 03:07:22;;;;;;;8.00;5.57;;;12.80;99.90;;;;;;5113837;28;20032;-84
2021/06/01 03:09:48;;;;;;;7.20;5.20;;;12.40;99.90;;;;;;5113973;28;20085;-83
2021/06/01 03:12:35;;;;;;;8.48;5.55;;;12.70;99.90;;;;;;5113292;28;20435;-79
2021/06/01 03:15:00;;;;;;;7.97;5.55;;;12.90;99.90;;;;;;5095438;28;20368;-76
2021/06/01 03:17:26;;;;;;;8.77;5.80;;;13.10;99.90;;;;;;5113327;28;20617;-76
2021/06/01 03:19:52;;;;;;;8.20;5.70;;;13.10;99.90;;;;;;5112892;28;20024;-83
2021/06/01 03:22:18;;;;;;;6.65;4.90;;;12.70;99.90;;;;;;5112518;28;20036;-87
2021/06/01 03:24:43;;;;;;;7.72;5.93;;;12.90;99.90;;;;;;5113217;28;20157;-86
2021/06/01 03:27:09;;;;;;;8.75;5.20;;;12.90;99.90;;;;;;5093562;28;20051;-77
2021/06/01 03:29:35;;;;;;;8.98;5.68;;;12.90;99.90;;;;;;5112629;28;20467;-80
2021/06/01 03:32:01;;;;;;;7.43;5.30;;;13.00;99.90;;;;;;5112658;28;20065;-86
2021/06/01 03:34:27;;;;;;;7.60;5.13;;;12.90;99.90;;;;;;5093942;28;20054;-78
2021/06/01 03:36:53;;;;;;;7.47;5.35;;;12.80;99.90;;;;;;5094270;28;20058;-83
2021/06/01 03:39:20;;;;;;;12.05;5.50;;;12.80;99.90;;;;;;5112924;28;20565;-79
2021/06/01 03:41:48;;;;;;;9.93;6.35;;;12.70;99.90;;;;;;5112159;28;20075;-89
2021/06/01 03:44:15;;;;;;;8.50;5.55;;;12.60;99.90;;;;;;5112633;28;20382;-81
2021/06/01 03:46:40;;;;;;;7.95;5.65;;;12.70;99.90;;;;;;5112946;28;20126;-80
2021/06/01 03:49:06;;;;;;;7.85;5.28;;;12.70;99.90;;;;;;5111544;28;20110;-79
2021/06/01 03:51:32;;;;;;;12.63;5.32;;;12.70;99.90;;;;;;5112368;28;20455;-76
2021/06/01 03:53:58;;;;;;;9.98;6.13;;;12.80;99.90;;;;;;5113104;28;20439;-84
2021/06/01 03:56:24;;;;;;;7.53;4.95;;;12.90;99.90;;;;;;5112497;28;20486;-88
2021/06/01 03:58:49;;;;;;;10.20;6.25;;;12.90;99.90;;;;;;5112381;28;20135;-76
2021/06/01 04:01:15;;;;;;;12.85;5.90;;;13.00;99.90;;;;;;5094539;28;20094;-90
2021/06/01 04:03:41;;;;;;;10.35;6.05;;;13.10;99.90;;;;;;5112173;28;20387;-80
2021/06/01 04:06:09;;;;;;;7.03;5.07;;;13.20;99.90;;;;;;5111218;28;20022;-76
2021/06/01 04:08:35;;;;;;;10.65;5.45;;;13.30;99.90;;;;;;5112428;28;20405;-75
2021/06/01 04:11:00;;;;;;;7.50;5.18;;;13.30;99.90;;;;;;5112127;28;20439;-83
2021/06/01 04:13:27;;;;;;;10.85;6.43;;;13.30;99.90;;;;;;5111910;28;20519;-84
2021/06/01 04:15:52;;;;;;;9.07;5.38;;;13.10;99.90;;;;;;5094035;28;20026;-87
2021/06/01 04:18:18;;;;;;;7.60;5.45;;;13.10;99.90;;;;;;5112090;28;20106;-88
2021/06/01 04:20:44;;;;;;;12.27;6.38;;;13.20;99.90;;;;;;5111625;28;20111;-84
2021/06/01 04:23:10;;;;;;;11.75;6.35;;;13.10;99.90;;;;;;5111703;28;20031;-77
2021/06/01 04:25:36;;;;;;;10.63;5.82;;;13.20;99.90;;;;;;5093706;28;20096;-77
2021/06/01 04:28:02;;;;;;;10.95;6.35;;;13.20;99.90;;;;;;5111745;28;20035;-76
2021/06/01 04:30:28;;;;;;;10.27;6.18;;;13.20;99.90;;;;;;5111717;28;20020;-79
2021/06/01 04:32:54;;;;;;;9.27;6.40;;;13.20;99.90;;;;;;5093638;28;20471;-81
2021/06/01 04:35:19;;;;;;;11.40;6.20;;;13.10;99.90;;;;;;5094087;28;20057;-86
2021/06/01 04:37:45;;;;;;;12.88;7.35;;;13.00;99.90;;;;;;5111987;28;20023;-87
2021/06/01 04:40:14;;;;;;;12.80;7.32;;;13.10;99.90;;;;;;5112536;28;20024;-91
2021/06/01 04:42:40;;;;;;;8.85;6.30;;;13.10;99.90;;;;;;5094409;28;20036;-77
2021/06/01 04:45:06;;;;;;;9.00;5.53;;;13.10;99.90;;;;;;5094099;28;20055;-83
2021/06/01 04:47:32;;;;;;;13.98;7.13;;;13.10;99.90;;;;;;5112423;28;20035;-93
2021/06/01 04:49:58;;;;;;;13.93;7.53;;;13.10;99.90;;;;;;5095083;28;20391;-90
2021/06/01 04:52:24;;;;;;;10.45;6.45;;;13.10;99.90;;;;;;5111120;28;20034;-81
2021/06/01 04:54:50;;;;;;;9.55;6.03;;;13.20;99.90;;;;;;5112377;28;20068;-76
2021/06/01 04:57:16;;;;;;;12.20;7.03;;;13.20;99.90;;;;;;5111701;28;20386;-84
2021/06/01 04:59:42;;;;;;;53.95;34.80;;;13.20;99.90;;;;;;5111625;28;20169;-78
2021/06/01 05:02:07;;;;;;;104.93;62.33;;;13.40;99.90;;;;;;5115001;28;20476;-80
2021/06/01 05:04:33;;;;;;;27.58;16.90;;;13.40;99.90;;;;;;5116045;28;20028;-81
2021/06/01 05:07:00;;;;;;;12.23;7.28;;;13.50;99.90;;;;;;5096264;28;20396;-75
2021/06/01 05:09:26;;;;;;;10.80;6.75;;;13.40;99.90;;;;;;5115032;28;20020;-86
2021/06/01 05:11:52;;;;;;;11.07;6.25;;;13.50;99.90;;;;;;5115191;28;20028;-82
2021/06/01 05:14:18;;;;;;;8.80;6.00;;;13.50;99.90;;;;;;5096683;28;20024;-83
2021/06/01 05:16:44;;;;;;;8.88;5.47;;;13.50;99.90;;;;;;5114545;28;20065;-81
2021/06/01 05:19:10;;;;;;;9.00;6.38;;;13.60;99.90;;;;;;5114634;28;20116;-82
2021/06/01 05:21:35;;;;;;;9.75;5.75;;;13.70;99.90;;;;;;5114846;28;20153;-84
2021/06/01 05:24:02;;;;;;;7.65;5.63;;;13.80;99.90;;;;;;5115052;28;20467;-78
2021/06/01 05:26:27;;;;;;;10.55;6.43;;;13.90;99.90;;;;;;5115005;28;20027;-79
2021/06/01 05:28:53;;;;;;;11.88;6.10;;;13.80;99.90;;;;;;5096699;28;20470;-85
2021/06/01 05:33:58;;;;;;;17.95;9.48;;;13.90;99.90;;;;;;5114881;28;20474;-87
2021/06/01 05:36:24;;;;;;;104.68;58.17;;;13.90;99.90;;;;;;5114405;28;20048;-82
2021/06/01 05:38:51;;;;;;;17.27;12.38;;;14.30;99.90;;;;;;5096293;28;20048;-82
2021/06/01 05:41:17;;;;;;;13.82;8.63;;;14.40;99.90;;;;;;5114446;28;20375;-84
2021/06/01 05:43:43;;;;;;;9.45;6.05;;;14.50;99.90;;;;;;5114526;28;20123;-79
2021/06/01 05:46:10;;;;;;;9.77;5.47;;;14.50;99.90;;;;;;5113882;28;20130;-82
2021/06/01 05:48:36;;;;;;;12.75;5.80;;;14.60;99.90;;;;;;5114020;28;20447;-81
2021/06/01 05:51:02;;;;;;;10.55;5.82;;;14.60;99.90;;;;;;5096032;28;20530;-79
2021/06/01 05:53:28;;;;;;;8.25;5.65;;;14.50;99.90;;;;;;5114034;28;20039;-84
2021/06/01 05:55:55;;;;;;;9.45;5.82;;;14.50;99.90;;;;;;5114367;28;20030;-86
2021/06/01 05:58:22;;;;;;;7.32;5.13;;;14.40;99.90;;;;;;5095837;28;20103;-85
2021/06/01 06:00:48;;;;;;;8.07;5.28;;;14.50;99.90;;;;;;5113632;28;20031;-75
2021/06/01 06:03:16;;;;;;;11.85;5.30;;;14.60;99.90;;;;;;5113990;28;20019;-81
2021/06/01 06:05:44;;;;;;;6.80;4.80;;;14.50;99.90;;;;;;5107991;27;20123;-86
2021/06/01 06:08:12;;;;;;;9.02;4.40;;;14.60;99.90;;;;;;5098247;27;20035;-77
2021/06/01 06:10:39;;;;;;;5.88;3.92;;;14.40;99.90;;;;;;5127328;27;20111;-81
2021/06/01 06:13:05;;;;;;;8.40;3.63;;;14.30;99.90;;;;;;5112538;28;20371;-79
2021/06/01 06:15:31;;;;;;;5.80;3.60;;;13.90;99.90;;;;;;5113382;28;20024;-81
2021/06/01 06:18:03;;;;;;;6.57;3.80;;;13.50;99.90;;;;;;5113423;28;20035;-82
2021/06/01 06:20:31;;;;;;;5.38;3.55;;;13.50;99.90;;;;;;5088716;28;20131;-82
2021/06/01 06:22:57;;;;;;;5.07;3.65;;;13.60;99.90;;;;;;5074104;28;20115;-80
2021/06/01 06:25:23;;;;;;;4.53;3.47;;;13.50;99.90;;;;;;5111026;28;20353;-84
2021/06/01 06:27:49;;;;;;;5.30;3.78;;;13.50;99.90;;;;;;5113243;28;20498;-85
2021/06/01 06:30:15;;;;;;;9.75;4.10;;;13.50;99.90;;;;;;5095036;28;20102;-86
2021/06/01 06:32:42;;;;;;;6.35;3.70;;;13.40;99.90;;;;;;5112817;28;20408;-82
2021/06/01 06:35:08;;;;;;;5.80;4.45;;;13.40;99.90;;;;;;5112975;28;20026;-85
2021/06/01 06:37:34;;;;;;;5.38;3.88;;;13.40;99.90;;;;;;5112710;28;20023;-79
2021/06/01 06:40:00;;;;;;;5.68;4.20;;;13.70;99.90;;;;;;5113541;28;20411;-80
2021/06/01 06:42:26;;;;;;;5.63;3.70;;;13.70;99.90;;;;;;5112437;28;20482;-83
2021/06/01 06:44:53;;;;;;;6.78;3.90;;;13.70;99.90;;;;;;5094729;28;20035;-81
2021/06/01 06:49:48;;;;;;;7.25;4.32;;;13.80;99.90;;;;;;5113261;28;20027;-80
2021/06/01 06:52:22;;;;;;;7.55;5.05;;;13.90;99.90;;;;;;5073134;28;20036;-77
2021/06/01 06:55:07;;;;;;;10.38;4.10;;;14.10;99.90;;;;;;5092458;28;20107;-71
2021/06/01 06:57:42;;;;;;;6.35;4.03;;;14.40;99.90;;;;;;5092092;28;20032;-85
2021/06/01 07:00:15;;;;;;;6.43;4.03;;;14.40;99.90;;;;;;5076846;28;20042;-84
2021/06/01 07:02:42;;;;;;;7.97;4.43;;;14.50;99.90;;;;;;5112883;28;20441;-83
2021/06/01 07:05:11;;;;;;;5.82;3.50;;;14.50;99.90;;;;;;5112467;28;20023;-76
2021/06/01 07:07:37;;;;;;;6.30;3.92;;;14.60;99.90;;;;;;5112310;28;20397;-81
2021/06/01 07:10:04;;;;;;;6.10;3.88;;;14.60;99.90;;;;;;5113063;28;20053;-81
2021/06/01 07:12:30;;;;;;;5.40;3.65;;;14.60;99.90;;;;;;5112051;28;20136;-82
2021/06/01 07:15:09;;;;;;;5.00;3.65;;;14.80;99.90;;;;;;5112993;28;20094;-81
2021/06/01 07:17:35;;;;;;;8.70;3.95;;;14.90;99.90;;;;;;5112069;28;20054;-78
2021/06/01 07:20:01;;;;;;;6.80;3.50;;;15.00;99.90;;;;;;5111833;28;20367;-81
2021/06/01 07:22:27;;;;;;;7.22;3.72;;;15.20;99.90;;;;;;5112122;28;20126;-80
2021/06/01 07:24:53;;;;;;;4.88;3.40;;;15.40;99.90;;;;;;5111502;28;20114;-77
2021/06/01 07:27:19;;;;;;;7.07;3.63;;;15.70;99.90;;;;;;5110457;28;20042;-84
2021/06/01 07:29:44;;;;;;;6.05;3.22;;;15.80;99.90;;;;;;5110824;28;20531;-82
2021/06/01 07:32:10;;;;;;;6.00;3.58;;;15.90;99.90;;;;;;5110506;28;20031;-75
2021/06/01 07:34:36;;;;;;;4.75;3.20;;;16.00;99.90;;;;;;5110679;28;20046;-77
2021/06/01 07:37:02;;;;;;;5.10;3.20;;;16.00;99.90;;;;;;5107838;28;20027;-77
2021/06/01 07:39:28;;;;;;;5.85;3.22;;;16.10;99.40;;;;;;5110803;28;20026;-75
2021/06/01 07:41:54;;;;;;;5.32;3.17;;;16.30;99.10;;;;;;5111393;28;20033;-80
2021/06/01 07:44:19;;;;;;;5.88;3.92;;;16.30;98.60;;;;;;5109889;28;20020;-76
2021/06/01 07:46:45;;;;;;;4.65;2.90;;;16.30;98.30;;;;;;5110049;28;20059;-73
2021/06/01 07:49:11;;;;;;;4.80;3.30;;;16.30;98.20;;;;;;5110206;28;20020;-77
2021/06/01 07:51:37;;;;;;;6.07;3.60;;;15.50;99.90;;;;;;5103172;28;20558;-71
2021/06/01 07:54:04;;;;;;;5.85;3.63;;;15.50;99.90;;;;;;5110704;28;20031;-78
2021/06/01 07:56:34;;;;;;;5.07;3.38;;;15.70;99.90;;;;;;5109917;28;20032;-75
2021/06/01 07:59:00;;;;;;;5.32;3.47;;;15.80;99.60;;;;;;5111045;28;20028;-78
2021/06/01 08:01:26;;;;;;;6.13;3.60;;;15.80;99.00;;;;;;5110384;28;20091;-79
2021/06/01 08:03:57;;;;;;;6.32;3.20;;;15.60;99.90;;;;;;5108910;28;20043;-78
2021/06/01 08:06:25;;;;;;;5.65;3.70;;;15.80;99.90;;;;;;5110124;28;20028;-74
2021/06/01 08:08:51;;;;;;;4.85;3.55;;;15.40;99.90;;;;;;5092032;28;20027;-71
2021/06/01 08:11:17;;;;;;;5.03;3.33;;;15.60;99.90;;;;;;5092055;28;20386;-75
2021/06/01 08:13:43;;;;;;;7.38;3.95;;;15.60;99.90;;;;;;5110227;28;20052;-81
2021/06/01 08:16:09;;;;;;;5.53;3.60;;;15.50;99.90;;;;;;5092973;28;20016;-73
2021/06/01 08:18:43;;;;;;;5.05;3.50;;;15.40;99.90;;;;;;5109907;28;20042;-73
2021/06/01 08:21:12;;;;;;;6.63;4.53;;;15.40;99.90;;;;;;5099418;28;20020;-75
2021/06/01 08:23:39;;;;;;;5.50;3.72;;;15.60;99.90;;;;;;5091193;28;20028;-76
2021/06/01 08:26:05;;;;;;;5.28;3.65;;;15.30;99.90;;;;;;5072820;28;20387;-73
2021/06/01 08:28:33;;;;;;;5.90;3.55;;;15.40;99.90;;;;;;5090815;28;20497;-76
2021/06/01 08:31:02;;;;;;;6.35;3.60;;;15.50;99.90;;;;;;5073039;28;20509;-80
2021/06/01 08:33:27;;;;;;;6.00;3.65;;;15.60;99.90;;;;;;5090486;28;20040;-77
2021/06/01 08:35:53;;;;;;;5.32;3.58;;;15.80;99.90;;;;;;5101814;28;20047;-71
2021/06/01 08:38:21;;;;;;;5.82;3.35;;;16.10;99.90;;;;;;5094623;28;20069;-72
2021/06/01 08:40:53;;;;;;;5.65;3.60;;;16.50;99.90;;;;;;5094138;28;20071;-73
2021/06/01 08:43:26;;;;;;;6.75;4.05;;;16.40;99.90;;;;;;5111263;28;20488;-74
2021/06/01 08:45:54;;;;;;;5.22;3.22;;;16.60;99.90;;;;;;5113074;28;20058;-74
2021/06/01 08:48:21;;;;;;;8.00;3.65;;;16.70;99.90;;;;;;5113099;28;20508;-73
2021/06/01 08:50:50;;;;;;;4.25;2.83;;;16.70;99.70;;;;;;5113625;28;20504;-72
2021/06/01 08:53:16;;;;;;;6.32;3.60;;;16.20;99.00;;;;;;5110316;28;20028;-74
2021/06/01 08:55:45;;;;;;;5.90;3.50;;;15.90;99.60;;;;;;5094910;28;20581;-72
2021/06/01 08:58:20;;;;;;;8.57;3.95;;;15.90;99.20;;;;;;5111936;28;20028;-76
2021/06/01 09:00:50;;;;;;;12.65;6.47;;;16.00;99.90;;;;;;5112594;28;20675;-73
2021/06/01 09:03:19;;;;;;;4.97;3.28;;;16.70;99.90;;;;;;5095609;28;20476;-70
2021/06/01 09:06:18;;;;;;;5.70;3.67;;;16.70;98.10;;;;;;5109924;28;20023;-71
2021/06/01 09:08:56;;;;;;;7.47;3.70;;;16.40;98.00;;;;;;5113293;28;20115;-75
2021/06/01 09:11:53;;;;;;;7.97;3.88;;;16.30;97.70;;;;;;5112094;28;20034;-74
2021/06/01 09:22:31;;;;;;;5.07;3.40;;;15.60;97.00;;;;;;5113131;28;20230;-82
2021/06/01 09:27:59;;;;;;;5.80;2.95;;;16.50;95.60;;;;;;5108410;28;20055;-84
2021/06/01 09:30:44;;;;;;;7.82;3.38;;;16.70;95.10;;;;;;5113579;28;20035;-81
2021/06/01 09:33:24;;;;;;;5.88;3.10;;;17.20;94.90;;;;;;5113696;28;20429;-84
2021/06/01 09:35:59;;;;;;;5.57;3.47;;;17.30;93.30;;;;;;5113463;28;20370;-82
2021/06/01 09:38:29;;;;;;;5.38;3.33;;;17.50;92.20;;;;;;5114097;28;20106;-80
2021/06/01 09:41:08;;;;;;;10.23;4.05;;;17.80;91.30;;;;;;5110629;28;20016;-78
2021/06/01 09:43:55;;;;;;;4.32;2.70;;;18.20;91.00;;;;;;5092846;28;20031;-72
2021/06/01 09:46:35;;;;;;;5.68;3.45;;;17.30;86.70;;;;;;5093769;28;20047;-78
2021/06/01 09:49:13;;;;;;;5.25;3.63;;;17.10;90.90;;;;;;5091115;28;20458;-83
2021/06/01 09:51:51;;;;;;;5.70;3.75;;;16.90;91.30;;;;;;5090982;28;20020;-76
2021/06/01 09:54:38;;;;;;;4.57;3.20;;;17.40;91.30;;;;;;5090631;28;20035;-75
2021/06/01 09:57:23;;;;;;;5.47;3.40;;;17.40;91.10;;;;;;5091676;28;20131;-74
2021/06/01 10:00:16;;;;;;;5.35;3.30;;;17.40;90.70;;;;;;5090807;28;20024;-79
2021/06/01 10:02:44;;;;;;;7.60;3.30;;;17.80;90.70;;;;;;5090723;28;20036;-80
2021/06/01 10:05:14;;;;;;;9.50;3.42;;;18.00;91.20;;;;;;5091769;28;20383;-72
2021/06/01 10:07:40;;;;;;;5.75;3.65;;;18.20;91.60;;;;;;5091506;28;20074;-79
2021/06/01 10:10:17;;;;;;;4.53;2.90;;;18.20;90.60;;;;;;5092579;28;20062;-73
2021/06/01 10:12:52;;;;;;;5.43;3.00;;;18.30;90.00;;;;;;5091754;28;20058;-77
2021/06/01 10:15:20;;;;;;;5.28;2.83;;;18.20;89.20;;;;;;5091323;28;20112;-79
2021/06/01 10:17:46;;;;;;;7.75;3.10;;;18.20;89.30;;;;;;5064295;28;20032;-74
2021/06/01 10:20:13;;;;;;;6.00;2.50;;;17.60;89.30;;;;;;5055208;28;20096;-75
2021/06/01 10:22:39;;;;;;;4.22;2.28;;;17.60;90.20;;;;;;5054832;28;20113;-72
2021/06/01 10:25:09;;;;;;;3.42;2.20;;;17.60;90.60;;;;;;5072909;28;20028;-75
2021/06/01 10:27:35;;;;;;;2.70;1.88;;;17.50;90.80;;;;;;5066675;28;20039;-70
2021/06/01 10:30:02;;;;;;;3.58;2.20;;;17.50;91.80;;;;;;5075292;28;20020;-75
2021/06/01 10:32:30;;;;;;;3.30;2.10;;;17.50;92.40;;;;;;5081731;28;20498;-77
2021/06/01 10:34:57;;;;;;;4.10;2.30;;;17.90;91.80;;;;;;5101788;28;20198;-73
2021/06/01 10:44:03;;;;;;;3.78;2.58;;;19.40;87.10;;;;;;5088604;28;20115;-75
2021/06/01 10:51:57;;;;;;;6.45;3.50;;;19.50;88.00;;;;;;5110032;28;20503;-78
2021/06/01 10:54:43;;;;;;;6.18;2.95;;;19.60;88.80;;;;;;5093038;28;20028;-75
2021/06/01 10:57:12;;;;;;;8.32;3.20;;;20.00;86.80;;;;;;5091253;28;20031;-80
2021/06/01 11:02:26;;;;;;;6.57;3.30;;;20.00;86.60;;;;;;5109880;28;20024;-82
2021/06/01 11:05:08;;;;;;;4.55;2.67;;;19.60;85.40;;;;;;5111380;28;20039;-81
2021/06/01 11:07:53;;;;;;;5.90;2.88;;;19.40;86.10;;;;;;5106483;28;20039;-76
2021/06/01 11:10:42;;;;;;;8.05;3.45;;;19.30;87.60;;;;;;5091884;28;20066;-76
2021/06/01 11:13:31;;;;;;;5.50;2.80;;;19.50;86.30;;;;;;5108287;28;20028;-75
2021/06/01 11:15:59;;;;;;;7.22;3.00;;;19.40;85.70;;;;;;5091465;28;20092;-78
2021/06/01 11:18:42;;;;;;;8.48;2.33;;;19.00;86.40;;;;;;5091842;28;20023;-73
2021/06/01 11:21:32;;;;;;;6.88;2.75;;;18.40;85.40;;;;;;5091758;28;20123;-73
2021/06/01 11:35:45;;;;;;;8.55;3.38;;;18.30;99.90;;;;;;5065857;28;20035;-72
2021/06/01 11:38:28;;;;;;;6.93;3.33;;;18.50;99.30;;;;;;5111649;28;20035;-75
2021/06/01 11:41:05;;;;;;;9.15;4.43;;;19.00;97.50;;;;;;5111152;28;20034;-74
2021/06/01 11:43:32;;;;;;;5.68;2.63;;;19.70;97.30;;;;;;5111744;28;20042;-76
2021/06/01 11:51:34;;;;;;;4.03;2.17;;;20.50;91.50;;;;;;5111138;28;20157;-74
2021/06/01 11:54:12;;;;;;;8.68;2.20;;;20.50;90.30;;;;;;5089654;28;20043;-74
2021/06/01 12:18:48;;;;;;;7.13;2.30;;;18.90;81.60;;;;;;5107791;28;20019;-79
2021/06/01 12:21:33;;;;;;;6.15;3.28;;;18.90;79.70;;;;;;5110252;28;20034;-79
2021/06/01 12:24:13;;;;;;;5.70;2.42;;;19.40;79.50;;;;;;5090620;28;20397;-76
2021/06/01 12:32:31;;;;;;;4.10;2.13;;;20.70;74.40;;;;;;5107845;28;20015;-80
2021/06/01 12:46:14;;;;;;;8.18;2.80;;;19.60;79.00;;;;;;5108074;28;20089;-81
2021/06/01 13:20:23;;;;;;;6.65;2.67;;;20.70;74.50;;;;;;5107371;28;20046;-76
2021/06/01 13:23:03;;;;;;;9.93;1.88;;;20.00;72.10;;;;;;5110596;28;20028;-75
2021/06/01 13:46:27;;;;;;;7.53;2.83;;;18.60;76.30;;;;;;5000489;28;20042;-75
2021/06/01 13:56:17;;;;;;;6.38;2.67;;;18.90;76.70;;;;;;5091759;28;20081;-73
2021/06/01 13:59:01;;;;;;;6.97;2.53;;;18.90;76.60;;;;;;5091942;28;20055;-76
2021/06/01 14:54:52;;;;;;;5.00;2.67;;;19.10;75.40;;;;;;5092850;28;20085;-76
2021/06/01 15:31:23;;;;;;;15.55;11.88;;;18.10;78.00;;;;;;5071501;28;20113;-80
2021/06/01 16:13:26;;;;;;;42.20;29.00;;;17.70;89.20;;;;;;5111739;28;20165;-74
2021/06/01 17:05:10;;;;;;;8.30;4.63;;;16.90;93.00;;;;;;5094715;28;20497;-74
2021/06/01 17:13:05;;;;;;;8.27;4.65;;;16.70;93.00;;;;;;5094711;28;20494;-75
2021/06/01 17:15:57;;;;;;;7.07;4.75;;;16.60;93.70;;;;;;5094354;28;20028;-75
2021/06/01 17:36:56;;;;;;;9.98;4.45;;;16.80;93.70;;;;;;5094599;28;20509;-73
2021/06/01 17:39:22;;;;;;;7.90;4.43;;;16.80;93.70;;;;;;5094072;28;20074;-74
2021/06/01 17:41:57;;;;;;;9.93;4.63;;;16.90;93.50;;;;;;5093631;28;20496;-72
2021/06/01 17:44:28;;;;;;;10.60;4.53;;;16.80;93.60;;;;;;5093984;28;20054;-78
2021/06/01 17:46:59;;;;;;;9.07;4.07;;;16.90;93.40;;;;;;5094097;28;20031;-85
2021/06/01 17:49:28;;;;;;;5.32;4.00;;;16.90;93.30;;;;;;5093926;28;20016;-75
2021/06/01 17:52:02;;;;;;;6.43;4.00;;;16.90;92.80;;;;;;5094247;28;20012;-73
2021/06/01 17:54:32;;;;;;;9.55;4.13;;;16.80;92.70;;;;;;5093782;28;20077;-74
2021/06/01 17:56:59;;;;;;;8.60;4.32;;;16.80;92.50;;;;;;5094464;28;20443;-73
2021/06/01 17:59:25;;;;;;;5.82;4.00;;;16.80;92.70;;;;;;5105811;28;20034;-75
2021/06/01 18:01:52;;;;;;;8.25;4.60;;;16.80;92.80;;;;;;5100026;28;20055;-89
2021/06/01 18:04:20;;;;;;;6.07;4.13;;;16.80;93.00;;;;;;5099804;28;20074;-85
2021/06/01 18:06:52;;;;;;;9.38;4.53;;;16.80;93.10;;;;;;5113431;28;20024;-80
2021/06/01 18:12:03;;;;;;;6.18;4.40;;;16.80;92.80;;;;;;5109542;28;20024;-85
2021/06/01 19:26:18;;;;;;;5.78;4.10;;;15.80;96.10;;;;;;5092802;28;20020;-80
2021/06/01 19:29:42;;;;;;;8.20;3.53;;;15.80;95.90;;;;;;5092684;28;20036;-75
2021/06/01 19:50:51;;;;;;;5.20;3.47;;;15.40;98.30;;;;;;5092293;28;20058;-80
2021/06/01 19:53:40;;;;;;;5.63;3.53;;;15.40;98.40;;;;;;5091042;28;20024;-74
2021/06/01 19:56:07;;;;;;;8.57;3.90;;;15.40;98.10;;;;;;5091310;28;20099;-79
2021/06/01 19:58:34;;;;;;;6.38;4.22;;;15.50;98.60;;;;;;5091488;28;20023;-88
2021/06/01 20:01:11;;;;;;;5.38;3.63;;;15.60;98.20;;;;;;5091975;28;20149;-71
2021/06/01 20:03:39;;;;;;;8.13;4.30;;;15.50;98.20;;;;;;5108654;28;20059;-73
2021/06/01 20:06:08;;;;;;;7.38;3.75;;;15.40;98.20;;;;;;5111807;28;20352;-74
2021/06/01 20:08:41;;;;;;;5.05;3.50;;;15.50;98.00;;;;;;5111391;28;20031;-75
2021/06/01 20:11:07;;;;;;;6.07;4.15;;;15.50;98.20;;;;;;5111808;28;20028;-80
2021/06/01 20:13:33;;;;;;;6.60;3.70;;;15.60;97.90;;;;;;5111575;28;20035;-86
2021/06/01 20:15:59;;;;;;;10.90;3.95;;;15.50;98.00;;;;;;5113511;28;20024;-80
2021/06/01 20:18:32;;;;;;;7.55;3.83;;;15.40;98.10;;;;;;5112219;28;20495;-79
2021/06/01 20:20:58;;;;;;;5.70;3.55;;;15.50;98.10;;;;;;5111536;28;20032;-73
2021/06/01 20:23:25;;;;;;;5.20;3.78;;;15.40;98.40;;;;;;5112192;28;20051;-78
2021/06/01 20:25:55;;;;;;;14.57;9.98;;;15.50;98.40;;;;;;5111670;28;20019;-76
2021/06/01 20:28:40;;;;;;;35.70;21.45;;;15.60;98.40;;;;;;5111205;28;20080;-78